Sycamore (728, 920) Station Data

Red Flag Warning: No
Fire Weather Zone: 250
SDGE Region: Beach Cities
Lat/Lon: 32.914/-117.03

Observations

Time Wind Speed/Gust Temp(F) RH Fuel Moist Fuel Temp(F) Dewpt(F) Tmax(F) Tmin(F) Accum Precip 10-min Precip SL Press(mb)
3/29 8:00am 125 3 G 5 63° 28% - - 29° 65.6° 56° - - -
3/29 7:50am 103 2 G 4 65° 24% - - 27° 65.6° 56° - - -
3/29 7:40am 78 4 G 7 65° 20% - - 24° 65.6° 56° - - -
3/29 7:30am 119 6 G 8 62° 24% - - 25° 64.9° 56° - - -
3/29 7:20am 110 7 G 8 64° 21% - - 23° 64.9° 56° - - -
3/29 7:10am 123 7 G 9 62° 24% - - 24° 63.4° 56° - - -
3/29 7:00am 120 5 G 8 62° 24% - - 25° 62.8° 56° - - -
3/29 6:50am 124 6 G 7 61° 27% - - 26° 62.7° 56° - - -
3/29 6:40am 135 5 G 8 62° 27% - - 28° 62.7° 56° - - -
3/29 6:30am 130 6 G 8 60° 31% - - 29° 62.7° 56° - - -
3/29 6:20am 132 6 G 8 59° 32% - - 30° 62.7° 56° - - -
3/29 6:10am 132 6 G 8 59° 33% - - 30° 62.7° 56° - - -
3/29 6:00am 145 6 G 7 59° 33% - - 30° 62.7° 56° - - -
3/29 5:50am 137 7 G 8 59° 35% - - 31° 62.7° 56° - - -
3/29 5:40am 126 7 G 9 59° 37% - - 33° 62.7° 56° - - -
3/29 5:30am 121 6 G 7 60° 35% - - 32° 62.7° 56° - - -
3/29 5:20am 119 5 G 6 60° 37% - - 34° 62.7° 56° - - -
3/29 5:10am 129 6 G 7 59° 42% - - 36° 62.7° 56° - - -
3/29 5:00am 138 7 G 8 58° 47% - - 38° 62.7° 56° - - -
3/29 4:50am 142 6 G 7 58° 48% - - 38° 62.7° 56° - - -
3/29 4:40am 141 5 G 6 60° 42% - - 36° 62.7° 56° - - -
3/29 4:30am 90 2 G 5 61° 37% - - 35° 62.7° 56° - - -
3/29 4:20am 77 2 G 4 60° 41% - - 36° 62.7° 56° - - -
3/29 4:10am 97 3 G 6 59° 44% - - 37° 62.7° 56° - - -
3/29 4:00am 23 4 G 5 58° 47% - - 38° 62.7° 56° - - -
3/29 3:50am 353 4 G 6 57° 50% - - 38° 62.7° 56° - - -
3/29 3:40am 335 4 G 6 59° 45% - - 37° 62.7° 56.1° - - -
3/29 3:30am 16 1 G 2 61° 40% - - 36° 62.7° 56.3° - - -
3/29 3:20am 8 1 G 2 61° 40% - - 36° 62.7° 56.3° - - -
3/29 3:10am 54 1 G 2 61° 40% - - 36° 62.7° 56.3° - - -
3/29 3:00am 44 1 G 2 60° 41% - - 37° 62.7° 56.3° - - -
3/29 2:50am 109 1 G 4 60° 43% - - 37° 62.7° 56.3° - - -
3/29 2:40am 63 2 G 4 59° 45% - - 38° 62.7° 56.3° - - -
3/29 2:30am 3 4 G 5 58° 46% - - 38° 62.7° 56.3° - - -
3/29 2:20am 2 4 G 5 59° 45% - - 37° 62.7° 56.3° - - -
3/29 2:10am 15 2 G 3 58° 48% - - 39° 62.7° 56.3° - - -
3/29 2:00am 25 2 G 3 58° 48% - - 39° 62.7° 56.3° - - -
3/29 1:50am 1 1 G 3 58° 49% - - 39° 62.7° 56.3° - - -
3/29 1:40am 44 2 G 5 61° 43% - - 39° 62.7° 56.3° - - -
3/29 1:30am 89 6 G 9 60° 46% - - 39° 61.6° 56.3° - - -
3/29 1:20am 122 6 G 8 58° 50% - - 39° 60.3° 56.3° - - -
3/29 1:10am 135 6 G 8 57° 52% - - 40° 60.3° 56.3° - - -
3/29 1:00am 131 6 G 8 60° 45% - - 38° 60.3° 57.5° - - -
3/29 12:50am 127 7 G 7 59° 45% - - 38° 60° 57.5° - - -
3/29 12:40am 122 6 G 8 58° 49% - - 39° 58.6° 57.5° - - -
3/29 12:30am 136 7 G 8 58° 49% - - 39° 58.6° 57.5° - - -
3/29 12:20am 145 6 G 8 58° 50% - - 39° 58.5° 57.5° - - -
3/29 12:10am 128 6 G 7 58° 51% - - 40° 58.3° 57.6° - - -
3/29 12:00am 124 6 G 8 58° 49% - - 39° 69.8° 48.5° - - -
3/28 11:50pm 133 7 G 8 59° 46% - - 38° 69.8° 48.5° - - -
3/28 11:40pm 141 6 G 7 59° 44% - - 37° 69.8° 48.5° - - -
3/28 11:30pm 140 6 G 7 59° 45% - - 37° 69.8° 48.5° - - -
3/28 11:20pm 130 5 G 7 58° 46% - - 38° 69.8° 48.5° - - -
3/28 11:10pm 144 5 G 6 57° 48% - - 38° 69.8° 48.5° - - -
3/28 11:00pm 146 4 G 6 57° 49% - - 38° 69.8° 48.5° - - -
3/28 10:50pm 138 5 G 6 57° 49% - - 38° 69.8° 48.5° - - -
3/28 10:40pm 122 6 G 7 58° 46% - - 38° 69.8° 48.5° - - -
3/28 10:30pm 119 6 G 8 58° 45% - - 37° 69.8° 48.5° - - -
3/28 10:20pm 112 7 G 8 60° 42% - - 36° 69.8° 48.5° - - -
3/28 10:10pm 108 7 G 8 60° 41% - - 37° 69.8° 48.5° - - -
3/28 10:00pm 106 5 G 6 61° 41% - - 37° 69.8° 48.5° - - -
3/28 9:50pm 111 6 G 7 60° 42% - - 37° 69.8° 48.5° - - -
3/28 9:40pm 125 5 G 6 59° 42% - - 37° 69.8° 48.5° - - -
3/28 9:30pm 118 4 G 5 60° 43% - - 37° 69.8° 48.5° - - -
3/28 9:20pm 114 3 G 4 60° 43% - - 37° 69.8° 48.5° - - -
3/28 9:10pm 34 2 G 2 60° 44% - - 38° 69.8° 48.5° - - -
3/28 9:00pm 335 2 G 3 60° 43% - - 37° 69.8° 48.5° - - -
3/28 8:50pm 330 3 G 5 60° 43% - - 37° 69.8° 48.5° - - -
3/28 8:40pm 312 5 G 6 60° 43% - - 37° 69.8° 48.5° - - -
3/28 8:30pm 288 5 G 7 60° 42% - - 37° 69.8° 48.5° - - -
3/28 8:20pm 304 4 G 6 60° 41% - - 36° 69.8° 48.5° - - -
3/28 8:10pm 309 3 G 5 59° 42% - - 36° 69.8° 48.5° - - -
3/28 8:00pm 297 4 G 6 60° 41% - - 36° 69.8° 48.5° - - -
3/28 7:50pm 289 5 G 6 61° 39% - - 36° 69.8° 48.5° - - -
3/28 7:40pm 277 4 G 6 61° 40% - - 36° 69.8° 48.5° - - -
3/28 7:30pm 290 5 G 7 61° 39% - - 36° 69.8° 48.5° - - -
3/28 7:20pm 292 4 G 5 61° 37% - - 35° 69.8° 48.5° - - -
3/28 7:10pm 287 5 G 6 61° 36% - - 34° 69.8° 48.5° - - -
3/28 7:00pm 280 5 G 8 62° 34% - - 33° 69.8° 48.5° - - -
3/28 6:50pm 281 4 G 7 62° 35% - - 34° 69.8° 48.5° - - -
3/28 6:40pm 296 5 G 11 63° 34% - - 34° 69.8° 48.5° - - -
3/28 6:30pm 298 7 G 11 63° 33% - - 34° 69.8° 48.5° - - -
3/28 6:20pm 300 8 G 12 63° 33% - - 34° 69.8° 48.5° - - -
3/28 6:10pm 305 9 G 14 64° 36% - - 37° 69.8° 48.5° - - -
3/28 6:00pm 310 11 G 15 64° 42% - - 41° 69.8° 48.5° - - -
3/28 5:50pm 309 12 G 17 64° 40% - - 40° 69.8° 48.5° - - -
3/28 5:40pm 300 11 G 16 64° 37% - - 37° 69.8° 48.5° - - -
3/28 5:30pm 302 10 G 16 65° 40% - - 40° 69.8° 48.5° - - -
3/28 5:20pm 302 9 G 15 65° 41% - - 41° 69.8° 48.5° - - -
3/28 5:10pm 296 9 G 15 65° 43% - - 42° 69.8° 48.5° - - -
3/28 5:00pm 305 10 G 15 67° 40% - - 41° 69.8° 48.5° - - -
3/28 4:50pm 308 10 G 16 67° 38% - - 40° 69.8° 48.5° - - -
3/28 4:40pm 298 9 G 16 67° 37% - - 40° 69.8° 48.5° - - -
3/28 4:30pm 305 9 G 15 68° 35% - - 39° 69.8° 48.5° - - -
3/28 4:20pm 304 9 G 15 68° 34% - - 39° 69.8° 48.5° - - -
3/28 4:10pm 303 8 G 13 68° 34% - - 38° 69.8° 48.5° - - -
3/28 4:00pm 297 9 G 15 68° 32% - - 37° 69.8° 48.5° - - -
3/28 3:50pm 303 9 G 13 68° 33% - - 38° 69.8° 48.5° - - -
3/28 3:40pm 305 10 G 17 69° 33% - - 39° 69.8° 48.5° - - -
3/28 3:30pm 303 8 G 15 69° 34% - - 40° 69.8° 48.5° - - -
3/28 3:20pm 299 8 G 14 69° 36% - - 41° 69.8° 48.5° - - -
3/28 3:10pm 305 7 G 15 69° 36% - - 41° 69.8° 48.5° - - -
3/28 3:00pm 294 7 G 14 68° 38% - - 42° 69.5° 48.5° - - -
3/28 2:50pm 285 7 G 12 68° 39% - - 42° 69.5° 48.5° - - -
3/28 2:40pm 304 7 G 14 68° 40% - - 43° 69.5° 48.5° - - -
3/28 2:30pm 298 6 G 12 68° 40% - - 43° 69.5° 48.5° - - -
3/28 2:20pm 302 6 G 11 67° 42% - - 44° 69.3° 48.5° - - -
3/28 2:10pm 292 8 G 13 67° 43% - - 44° 69.3° 48.5° - - -
3/28 2:00pm 292 8 G 14 66° 45% - - 44° 69.3° 48.5° - - -
3/28 1:50pm 312 9 G 15 67° 46% - - 46° 69.3° 48.5° - - -
3/28 1:40pm 316 10 G 15 67° 45% - - 45° 69.3° 48.5° - - -
3/28 1:30pm 313 10 G 16 67° 44% - - 45° 69.3° 48.5° - - -
3/28 1:20pm 312 9 G 16 67° 44% - - 45° 69.3° 48.5° - - -
3/28 1:10pm 318 7 G 15 68° 40% - - 43° 69.3° 48.5° - - -
3/28 1:00pm 310 6 G 13 68° 39% - - 42° 69.3° 48.5° - - -
3/28 12:50pm 334 6 G 11 67° 40% - - 42° 69.3° 48.5° - - -
3/28 12:40pm 320 7 G 11 67° 40% - - 42° 69.3° 48.5° - - -
3/28 12:30pm 304 5 G 10 69° 38% - - 42° 69.3° 48.5° - - -
3/28 12:20pm 310 4 G 7 68° 38% - - 41° 68.9° 48.5° - - -
3/28 12:10pm 281 4 G 11 66° 40% - - 41° 67.5° 48.5° - - -
3/28 12:00pm 311 4 G 11 67° 38% - - 40° 67.5° 48.5° - - -
3/28 11:50am 302 5 G 11 66° 40% - - 41° 67.5° 48.5° - - -
3/28 11:40am 320 4 G 10 66° 40% - - 41° 67.2° 48.5° - - -
3/28 11:30am 306 6 G 12 65° 41% - - 41° 66.2° 48.5° - - -
3/28 11:20am 322 5 G 13 64° 39% - - 39° 65° 48.5° - - -
3/28 11:10am 315 4 G 10 64° 43% - - 41° 64.7° 48.5° - - -
3/28 11:00am 329 5 G 10 63° 49% - - 43° 63.6° 48.5° - - -
3/28 10:50am 314 7 G 10 62° 50% - - 43° 62.3° 48.5° - - -
3/28 10:40am 309 6 G 9 61° 49% - - 42° 61.7° 48.5° - - -
3/28 10:30am 337 7 G 10 61° 48% - - 42° 61.7° 48.5° - - -
3/28 10:20am 324 6 G 9 60° 54% - - 44° 61° 48.5° - - -
3/28 10:10am 333 6 G 11 59° 57% - - 44° 60° 48.5° - - -
3/28 10:00am 327 7 G 11 58° 57% - - 43° 58.9° 48.5° - - -
3/28 9:50am 338 6 G 10 58° 58% - - 43° 58.4° 48.5° - - -
3/28 9:40am 331 6 G 9 57° 62% - - 44° 57.7° 48.5° - - -
3/28 9:30am 330 4 G 7 57° 69% - - 46° 57.1° 48.5° - - -
3/28 9:20am 343 4 G 6 56° 68% - - 46° 56.9° 48.5° - - -
3/28 9:10am 326 3 G 5 56° 75% - - 48° 56.3° 48.5° - - -
3/28 9:00am 329 3 G 6 55° 92% - - 53° 55.5° 48.5° - - -
3/28 8:50am 304 2 G 4 55° 89% - - 52° 55.4° 48.5° - - -
3/28 8:40am 222 2 G 3 54° 99% - - 54° 55.2° 48.5° - - -
3/28 8:30am 153 3 G 4 54° 100% - - 54° 55.2° 48.5° - - -
3/28 8:20am 154 4 G 5 53° 100% - - 53° 55.2° 48.5° - - -
3/28 8:10am 89 3 G 7 54° 91% - - 52° 55.2° 48.5° - - -
3/28 8:00am 75 5 G 7 54° 94% - - 52° 54.6° 48.5° - - -
3/28 7:50am 62 3 G 6 54° 100% - - 54° 54.4° 48.5° - - -
3/28 7:40am 125 4 G 6 50° 100% - - 50° 53.1° 48.5° - - -
3/28 7:30am 144 6 G 7 49° 100% - - 49° 53.1° 48.5° - - -
3/28 7:20am 143 6 G 8 49° 100% - - 49° 53.1° 48.5° - - -
3/28 7:10am 132 5 G 6 50° 100% - - 50° 53.1° 48.5° - - -
3/28 7:00am 152 5 G 6 50° 100% - - 50° 53.1° 48.5° - - -
3/28 6:50am 92 6 G 9 51° 100% - - 51° 53.1° 48.5° - - -
3/28 6:40am 76 4 G 7 52° 100% - - 52° 53.1° 48.5° - - -
3/28 6:30am 115 2 G 3 52° 100% - - 52° 53.1° 48.5° - - -
3/28 6:20am 162 2 G 4 50° 100% - - 50° 53.1° 48.5° - - -
3/28 6:10am 159 5 G 6 50° 100% - - 50° 53.1° 48.5° - - -
3/28 6:00am 166 4 G 6 49° 100% - - 49° 53.1° 48.5° - - -